createdAt,value
2022-08-22T00:02:55.560Z,100.00
2022-08-22T00:03:11.928Z,100.00
2022-08-22T00:03:18.408Z,100.00
2022-08-22T00:06:37.635Z,100.00
2022-08-22T00:09:38.967Z,100.00
2022-08-22T00:12:51.994Z,100.00
2022-08-22T00:16:15.254Z,100.00
2022-08-22T00:19:25.945Z,100.00
2022-08-22T00:22:48.694Z,100.00
2022-08-22T00:25:51.476Z,100.00
2022-08-22T00:29:01.876Z,100.00
2022-08-22T00:32:09.049Z,100.00
2022-08-22T00:35:29.808Z,100.00
2022-08-22T00:38:37.233Z,100.00
2022-08-22T00:41:42.065Z,100.00
2022-08-22T00:44:43.504Z,100.00
2022-08-22T00:48:10.375Z,100.00
2022-08-22T00:51:22.472Z,100.00
2022-08-22T00:54:42.446Z,100.00
2022-08-22T00:58:03.097Z,100.00
2022-08-22T01:01:06.840Z,100.00
2022-08-22T01:04:27.093Z,100.00
2022-08-22T01:07:37.113Z,100.00
2022-08-22T01:10:58.379Z,100.00
2022-08-22T01:14:02.903Z,100.00
2022-08-22T01:17:07.280Z,100.00
2022-08-22T01:20:20.864Z,100.00
2022-08-22T01:23:41.123Z,100.00
2022-08-22T01:26:57.764Z,100.00
2022-08-22T01:30:18.068Z,100.00
2022-08-22T01:33:20.257Z,100.00
2022-08-22T01:36:24.827Z,100.00
2022-08-22T01:39:44.956Z,100.00
2022-08-22T01:42:58.631Z,100.00
2022-08-22T01:46:12.027Z,100.00
2022-08-22T01:49:16.222Z,100.00
2022-08-22T01:52:28.566Z,100.00
2022-08-22T01:55:46.080Z,100.00
2022-08-22T01:58:54.916Z,100.00
2022-08-22T02:02:14.175Z,100.00
2022-08-22T02:05:31.679Z,100.00
2022-08-22T02:08:52.368Z,100.00
2022-08-22T02:12:13.852Z,100.00
2022-08-22T02:15:34.874Z,100.00
2022-08-22T02:18:55.020Z,100.00
2022-08-22T02:21:56.448Z,100.00
2022-08-22T02:25:16.631Z,100.00
2022-08-22T02:28:56.575Z,100.00
2022-08-22T02:32:03.238Z,100.00
2022-08-22T02:35:10.768Z,100.00
2022-08-22T02:38:25.228Z,100.00
2022-08-22T02:41:30.994Z,100.00
2022-08-22T02:44:38.554Z,100.00
2022-08-22T02:47:46.005Z,100.00
2022-08-22T02:51:06.385Z,100.00
2022-08-22T02:54:26.141Z,100.00
2022-08-22T02:57:39.352Z,100.00
2022-08-22T03:00:48.212Z,100.00
2022-08-22T03:03:50.670Z,100.00
2022-08-22T03:06:58.026Z,100.00
2022-08-22T03:10:05.583Z,100.00
2022-08-22T03:13:11.835Z,100.00
2022-08-22T03:16:16.358Z,100.00
2022-08-22T03:19:24.798Z,100.00
2022-08-22T03:22:42.037Z,100.00
2022-08-22T03:25:58.599Z,100.00
2022-08-22T03:29:06.510Z,100.00
2022-08-22T03:32:11.239Z,100.00
2022-08-22T03:35:22.840Z,100.00
2022-08-22T03:38:28.825Z,100.00
2022-08-22T03:41:41.732Z,100.00
2022-08-22T03:44:43.125Z,100.00
2022-08-22T03:47:57.989Z,100.00
2022-08-22T03:51:18.407Z,100.00
2022-08-22T03:54:38.601Z,100.00
2022-08-22T03:57:59.056Z,100.00
2022-08-22T04:01:06.689Z,100.00
2022-08-22T04:04:11.200Z,100.00
2022-08-22T04:07:16.996Z,100.00
2022-08-22T04:10:48.069Z,100.00
2022-08-22T04:13:54.830Z,100.00
2022-08-22T04:17:11.182Z,100.00
2022-08-22T04:20:31.767Z,100.00
2022-08-22T04:23:48.752Z,100.00
2022-08-22T04:26:56.416Z,100.00
2022-08-22T04:30:27.265Z,100.00
2022-08-22T04:33:31.506Z,100.00
2022-08-22T04:36:37.893Z,100.00
2022-08-22T04:39:49.486Z,100.00
2022-08-22T04:43:11.388Z,100.00
2022-08-22T04:46:18.440Z,100.00
2022-08-22T04:49:28.928Z,100.00
2022-08-22T04:52:49.072Z,100.00
2022-08-22T04:56:09.212Z,100.00
2022-08-22T04:59:12.316Z,100.00
2022-08-22T05:02:21.038Z,100.00
2022-08-22T05:05:26.705Z,100.00
2022-08-22T05:08:32.090Z,100.00
2022-08-22T05:11:35.525Z,100.00
2022-08-22T05:14:40.079Z,100.00
2022-08-22T05:17:43.649Z,100.00
2022-08-22T05:20:47.384Z,100.00
2022-08-22T05:23:53.873Z,100.00
2022-08-22T05:26:57.185Z,100.00
2022-08-22T05:30:02.557Z,100.00
2022-08-22T05:33:23.591Z,100.00
2022-08-22T05:36:27.393Z,100.00
2022-08-22T05:39:29.889Z,100.00
2022-08-22T05:42:34.100Z,100.00
2022-08-22T05:45:36.244Z,100.00
2022-08-22T05:48:42.261Z,100.00
2022-08-22T05:51:51.066Z,100.00
2022-08-22T05:55:04.777Z,100.00
2022-08-22T05:58:18.453Z,100.00
2022-08-22T06:01:35.892Z,100.00
2022-08-22T06:04:44.885Z,100.00
2022-08-22T06:07:47.956Z,100.00
2022-08-22T06:10:52.621Z,100.00
2022-08-22T06:14:03.783Z,100.00
2022-08-22T06:17:10.289Z,100.00
2022-08-22T06:20:16.572Z,100.00
2022-08-22T06:23:28.171Z,100.00
2022-08-22T06:26:35.897Z,100.00
2022-08-22T06:29:42.567Z,100.00
2022-08-22T06:33:00.026Z,100.00
2022-08-22T06:36:30.708Z,100.00
2022-08-22T06:39:34.203Z,100.00
2022-08-22T06:42:40.445Z,100.00
2022-08-22T06:45:42.052Z,100.00
2022-08-22T06:48:43.930Z,100.00
2022-08-22T06:51:46.539Z,100.00
2022-08-22T06:54:49.290Z,100.00
2022-08-22T06:58:05.412Z,100.00
2022-08-22T07:01:11.785Z,100.00
2022-08-22T07:04:14.066Z,100.00
2022-08-22T07:07:17.696Z,100.00
2022-08-22T07:10:21.848Z,100.00
2022-08-22T07:13:25.107Z,100.00
2022-08-22T07:16:34.862Z,100.00
2022-08-22T07:19:37.964Z,100.00
2022-08-22T07:22:39.473Z,100.00
2022-08-22T07:25:49.673Z,100.00
2022-08-22T07:28:58.372Z,100.00
2022-08-22T07:32:12.181Z,100.00
2022-08-22T07:35:23.326Z,100.00
2022-08-22T07:38:35.635Z,100.00
2022-08-22T07:41:47.541Z,100.00
2022-08-22T07:44:51.917Z,100.00
2022-08-22T07:47:57.063Z,100.00
2022-08-22T07:51:08.247Z,100.00
2022-08-22T07:54:11.564Z,100.00
2022-08-22T07:57:15.445Z,100.00
2022-08-22T08:00:19.550Z,100.00
2022-08-22T08:03:21.937Z,100.00
2022-08-22T08:06:24.825Z,100.00
2022-08-22T08:09:32.949Z,100.00
2022-08-22T08:12:36.138Z,100.00
2022-08-22T08:15:39.336Z,100.00
2022-08-22T08:18:41.174Z,100.00
2022-08-22T08:21:49.573Z,100.00
2022-08-22T08:24:53.085Z,100.00
2022-08-22T08:28:14.005Z,100.00
2022-08-22T08:31:15.663Z,100.00
2022-08-22T08:34:20.767Z,100.00
2022-08-22T08:37:41.142Z,100.00
2022-08-22T08:40:55.632Z,100.00
2022-08-22T08:44:15.803Z,100.00
2022-08-22T08:47:17.240Z,100.00
2022-08-22T08:50:21.712Z,100.00
2022-08-22T08:53:32.744Z,97.63
2022-08-22T08:56:54.439Z,100.00
2022-08-22T09:00:12.462Z,100.00
2022-08-22T09:03:32.454Z,100.00
2022-08-22T09:06:43.011Z,100.00
2022-08-22T09:09:57.261Z,100.00
2022-08-22T09:13:11.869Z,100.00
2022-08-22T09:20:21.760Z,94.80
2022-08-22T09:23:39.254Z,94.12
2022-08-22T09:26:40.655Z,96.39
2022-08-22T09:29:57.078Z,93.64
2022-08-22T09:33:14.759Z,94.24
2022-08-22T09:36:22.069Z,99.59
2022-08-22T09:39:49.472Z,85.40
2022-08-22T09:43:12.906Z,86.25
2022-08-22T09:46:32.167Z,87.22
2022-08-22T09:49:47.452Z,91.71
2022-08-22T09:52:49.120Z,85.79
2022-08-22T09:56:15.253Z,92.30
2022-08-22T09:59:34.888Z,94.27
2022-08-22T10:02:55.115Z,92.91
2022-08-22T10:06:01.361Z,73.94
2022-08-22T10:09:35.328Z,80.99
2022-08-22T10:12:46.478Z,83.11
2022-08-22T10:15:50.169Z,76.59
2022-08-22T10:18:53.276Z,75.48
2022-08-22T10:21:59.560Z,76.19
2022-08-22T10:25:11.428Z,72.15
2022-08-22T10:28:31.926Z,75.94
2022-08-22T10:31:45.085Z,75.83
2022-08-22T10:35:01.903Z,66.81
2022-08-22T10:38:10.783Z,64.30
2022-08-22T10:41:25.975Z,71.05
2022-08-22T10:44:33.836Z,64.05
2022-08-22T10:47:41.830Z,59.75
2022-08-22T10:50:46.680Z,66.75
2022-08-22T10:54:00.632Z,59.14
2022-08-22T10:57:08.290Z,52.40
2022-08-22T11:00:29.110Z,49.68
2022-08-22T11:03:48.803Z,45.14
2022-08-22T11:07:13.509Z,44.13
2022-08-22T11:10:23.033Z,47.50
2022-08-22T11:13:36.546Z,46.59
2022-08-22T11:16:41.743Z,51.25
2022-08-22T11:19:46.549Z,46.50
2022-08-22T11:22:55.504Z,43.46
2022-08-22T11:26:15.323Z,45.30
2022-08-22T11:30:01.427Z,41.89
2022-08-22T11:33:04.317Z,45.81
2022-08-22T11:36:16.459Z,41.89
2022-08-22T11:39:24.805Z,43.49
2022-08-22T11:42:26.138Z,44.15
2022-08-22T11:45:36.797Z,42.46
2022-08-22T11:48:48.858Z,43.94
2022-08-22T11:51:57.216Z,39.84
2022-08-22T11:55:21.631Z,41.34
2022-08-22T11:58:49.314Z,40.36
2022-08-22T12:02:03.999Z,40.46
2022-08-22T12:05:13.694Z,40.97
2022-08-22T12:08:40.691Z,43.08
2022-08-22T12:11:55.632Z,42.80
2022-08-22T12:15:13.209Z,43.48
2022-08-22T12:18:30.495Z,44.51
2022-08-22T12:21:46.932Z,46.40
2022-08-22T12:25:02.734Z,44.70
2022-08-22T12:28:07.587Z,44.68
2022-08-22T12:31:10.282Z,44.51
2022-08-22T12:34:18.207Z,46.53
2022-08-22T12:37:24.363Z,45.46
2022-08-22T12:40:26.332Z,45.06
2022-08-22T12:43:42.877Z,44.55
2022-08-22T12:46:47.650Z,45.17
2022-08-22T12:50:01.138Z,49.93
2022-08-22T12:53:20.077Z,45.64
2022-08-22T12:56:21.824Z,44.99
2022-08-22T12:59:27.118Z,45.99
2022-08-22T13:02:31.587Z,46.96
2022-08-22T13:05:40.914Z,47.00
2022-08-22T13:08:44.604Z,44.46
2022-08-22T13:11:49.396Z,44.89
2022-08-22T13:14:54.397Z,44.15
2022-08-22T13:18:08.657Z,42.66
2022-08-22T13:21:21.935Z,41.19
2022-08-22T13:24:39.283Z,40.23
2022-08-22T13:27:51.373Z,42.42
2022-08-22T13:30:53.732Z,40.04
2022-08-22T13:34:03.421Z,38.92
2022-08-22T13:37:11.337Z,37.68
2022-08-22T13:40:14.406Z,39.10
2022-08-22T13:43:36.840Z,36.90
2022-08-22T13:46:52.962Z,37.86
2022-08-22T13:50:07.445Z,39.54
2022-08-22T13:53:15.410Z,39.43
2022-08-22T13:56:20.830Z,36.92
2022-08-22T13:59:50.285Z,39.33
2022-08-22T14:03:14.212Z,38.05
2022-08-22T14:06:37.516Z,39.21
2022-08-22T14:09:39.832Z,38.54
2022-08-22T14:12:50.549Z,37.98
2022-08-22T14:15:58.583Z,35.75
2022-08-22T14:19:11.554Z,36.10
2022-08-22T14:22:21.648Z,36.31
2022-08-22T14:25:35.145Z,35.96
2022-08-22T14:28:38.115Z,35.63
2022-08-22T14:31:39.875Z,36.65
2022-08-22T14:34:45.509Z,37.31
2022-08-22T14:37:51.792Z,37.13
2022-08-22T14:40:55.986Z,36.90
2022-08-22T14:44:03.797Z,35.87
2022-08-22T14:47:08.402Z,35.57
2022-08-22T14:50:43.070Z,37.66
2022-08-22T14:53:44.880Z,37.65
2022-08-22T14:56:48.185Z,36.95
2022-08-22T14:59:51.650Z,37.47
2022-08-22T15:02:54.533Z,38.49
2022-08-22T15:05:56.238Z,39.60
2022-08-22T15:08:59.901Z,38.22
2022-08-22T15:12:04.062Z,36.64
2022-08-22T15:15:10.102Z,37.65
2022-08-22T15:18:34.116Z,39.75
2022-08-22T15:21:37.189Z,37.90
2022-08-22T15:25:03.394Z,37.80
2022-08-22T15:28:07.839Z,37.11
2022-08-22T15:31:17.485Z,38.28
2022-08-22T15:34:48.613Z,37.60
2022-08-22T15:37:53.786Z,36.40
2022-08-22T15:40:56.536Z,38.48
2022-08-22T15:44:32.712Z,37.07
2022-08-22T15:47:38.564Z,38.91
2022-08-22T15:50:55.006Z,37.87
2022-08-22T15:54:03.416Z,38.67
2022-08-22T15:57:29.208Z,37.86
2022-08-22T16:00:43.781Z,38.60
2022-08-22T16:04:07.809Z,37.36
2022-08-22T16:07:35.530Z,36.80
2022-08-22T16:10:46.220Z,36.88
2022-08-22T16:13:48.157Z,37.18
2022-08-22T16:16:57.521Z,39.57
2022-08-22T16:20:07.762Z,38.64
2022-08-22T16:23:11.584Z,38.66
2022-08-22T16:26:15.383Z,38.74
2022-08-22T16:29:25.635Z,38.48
2022-08-22T16:32:28.228Z,37.72
2022-08-22T16:35:48.537Z,37.71
2022-08-22T16:38:52.805Z,40.07
2022-08-22T16:41:56.274Z,38.89
2022-08-22T16:44:57.679Z,39.64
2022-08-22T16:48:13.592Z,39.79
2022-08-22T16:51:18.426Z,40.84
2022-08-22T16:54:39.844Z,39.71
2022-08-22T16:57:54.476Z,39.40
2022-08-22T17:01:03.586Z,39.96
2022-08-22T17:04:18.298Z,40.77
2022-08-22T17:07:38.071Z,40.67
2022-08-22T17:10:58.232Z,41.64
2022-08-22T17:14:09.085Z,42.97
2022-08-22T17:17:25.492Z,44.02
2022-08-22T17:20:34.431Z,42.63
2022-08-22T17:23:54.321Z,43.65
2022-08-22T17:27:14.479Z,44.27
2022-08-22T17:30:21.039Z,44.68
2022-08-22T17:33:42.340Z,46.92
2022-08-22T17:37:02.540Z,49.38
2022-08-22T17:40:13.096Z,51.95
2022-08-22T17:43:27.013Z,54.76
2022-08-22T17:46:33.264Z,54.72
2022-08-22T17:49:46.607Z,57.65
2022-08-22T17:52:51.461Z,58.83
2022-08-22T17:55:52.904Z,61.30
2022-08-22T17:58:59.517Z,64.16
2022-08-22T18:02:16.332Z,66.43
2022-08-22T18:05:20.228Z,70.47
2022-08-22T18:11:51.951Z,74.25
2022-08-22T18:14:59.325Z,78.36
2022-08-22T18:18:00.824Z,81.66
2022-08-22T18:21:06.357Z,82.04
2022-08-22T18:24:10.866Z,84.69
2022-08-22T18:27:30.056Z,86.45
2022-08-22T18:30:48.225Z,88.32
2022-08-22T18:33:55.186Z,89.65
2022-08-22T18:37:05.046Z,91.67
2022-08-22T18:40:11.199Z,93.37
2022-08-22T18:43:17.892Z,96.06
2022-08-22T18:46:27.611Z,96.08
2022-08-22T18:49:37.439Z,96.42
2022-08-22T18:52:39.538Z,98.62
2022-08-22T18:55:49.458Z,100.00
2022-08-22T18:59:06.022Z,99.78
2022-08-22T19:02:20.481Z,100.00
2022-08-22T19:05:24.658Z,100.00
2022-08-22T19:08:35.096Z,100.00
2022-08-22T19:11:48.991Z,100.00
2022-08-22T19:15:09.133Z,100.00
2022-08-22T19:18:13.410Z,100.00
2022-08-22T19:21:37.885Z,100.00
2022-08-22T19:24:58.158Z,100.00
2022-08-22T19:28:09.330Z,100.00
2022-08-22T19:31:44.123Z,100.00
2022-08-22T19:34:47.653Z,100.00
2022-08-22T19:37:59.681Z,100.00
2022-08-22T19:41:02.973Z,100.00
2022-08-22T19:44:04.375Z,100.00
2022-08-22T19:47:11.987Z,100.00
2022-08-22T19:50:16.370Z,100.00
2022-08-22T19:53:19.255Z,100.00
2022-08-22T19:56:23.669Z,100.00
2022-08-22T19:59:50.557Z,100.00
2022-08-22T20:02:58.423Z,100.00
2022-08-22T20:06:06.983Z,100.00
2022-08-22T20:09:30.488Z,100.00
2022-08-22T20:12:32.150Z,100.00
2022-08-22T20:15:35.945Z,100.00
2022-08-22T20:19:05.512Z,100.00
2022-08-22T20:22:15.970Z,100.00
2022-08-22T20:25:43.160Z,100.00
2022-08-22T20:28:48.706Z,100.00
2022-08-22T20:31:55.524Z,100.00
2022-08-22T20:35:01.584Z,100.00
2022-08-22T20:38:15.098Z,100.00
2022-08-22T20:41:33.963Z,100.00
2022-08-22T20:44:53.287Z,100.00
2022-08-22T20:48:18.454Z,100.00
2022-08-22T20:51:32.194Z,100.00
2022-08-22T20:54:38.479Z,100.00
2022-08-22T20:57:46.203Z,100.00
2022-08-22T21:00:49.405Z,100.00
2022-08-22T21:03:51.660Z,100.00
2022-08-22T21:07:00.691Z,100.00
2022-08-22T21:10:23.303Z,100.00
2022-08-22T21:13:29.569Z,100.00
2022-08-22T21:16:32.939Z,100.00
2022-08-22T21:19:34.368Z,100.00
2022-08-22T21:22:35.726Z,100.00
2022-08-22T21:25:48.260Z,100.00
2022-08-22T21:28:49.669Z,100.00
2022-08-22T21:31:52.870Z,100.00
2022-08-22T21:34:54.652Z,100.00
2022-08-22T21:37:57.077Z,100.00
2022-08-22T21:41:04.475Z,100.00
2022-08-22T21:44:17.778Z,100.00
2022-08-22T21:47:30.653Z,100.00
2022-08-22T21:50:38.322Z,100.00
2022-08-22T21:53:39.710Z,100.00
2022-08-22T21:56:41.338Z,100.00
2022-08-22T21:59:52.162Z,100.00
2022-08-22T22:03:02.885Z,100.00
2022-08-22T22:06:06.402Z,100.00
2022-08-22T22:09:09.988Z,100.00
2022-08-22T22:12:15.171Z,100.00
2022-08-22T22:15:19.540Z,100.00
2022-08-22T22:18:25.346Z,100.00
2022-08-22T22:21:27.128Z,100.00
2022-08-22T22:24:28.498Z,100.00
2022-08-22T22:27:29.913Z,100.00
2022-08-22T22:30:31.418Z,100.00
2022-08-22T22:33:34.933Z,100.00
2022-08-22T22:36:36.346Z,100.00
2022-08-22T22:39:38.656Z,100.00
2022-08-22T22:42:40.119Z,100.00
2022-08-22T22:45:41.524Z,100.00
2022-08-22T22:48:44.725Z,100.00
2022-08-22T22:51:46.249Z,100.00
2022-08-22T22:54:48.346Z,100.00
2022-08-22T22:57:58.642Z,100.00
2022-08-22T23:01:27.325Z,100.00
2022-08-22T23:04:29.111Z,100.00
2022-08-22T23:07:30.465Z,100.00
2022-08-22T23:10:35.419Z,100.00
2022-08-22T23:13:36.857Z,100.00
2022-08-22T23:16:41.219Z,100.00
2022-08-22T23:19:42.683Z,100.00
2022-08-22T23:22:47.621Z,100.00
2022-08-22T23:25:48.974Z,100.00
2022-08-22T23:28:50.381Z,100.00
2022-08-22T23:31:53.892Z,100.00
2022-08-22T23:34:56.091Z,100.00
2022-08-22T23:37:57.670Z,100.00
2022-08-22T23:41:06.652Z,100.00
2022-08-22T23:44:13.579Z,100.00
2022-08-22T23:47:15.564Z,100.00
2022-08-22T23:50:16.961Z,100.00
2022-08-22T23:53:18.372Z,100.00
2022-08-22T23:56:26.896Z,100.00
2022-08-22T23:59:30.983Z,100.00
